sensor_id;sensor_type;location;lat;lon;timestamp;P1;durP1;ratioP1;P2;durP2;ratioP2
21128;SDS011;10722;51.910;8.352;2023-06-05T00:02:30;11.65;;;3.90;;
21128;SDS011;10722;51.910;8.352;2023-06-05T00:05:16;12.10;;;3.72;;
21128;SDS011;10722;51.910;8.352;2023-06-05T00:08:01;11.55;;;3.80;;
21128;SDS011;10722;51.910;8.352;2023-06-05T00:10:47;12.30;;;3.72;;
21128;SDS011;10722;51.910;8.352;2023-06-05T00:13:32;15.60;;;4.03;;
21128;SDS011;10722;51.910;8.352;2023-06-05T00:16:18;13.38;;;4.30;;
21128;SDS011;10722;51.910;8.352;2023-06-05T00:19:03;11.60;;;4.05;;
21128;SDS011;10722;51.910;8.352;2023-06-05T00:21:51;12.98;;;4.47;;
21128;SDS011;10722;51.910;8.352;2023-06-05T00:24:36;12.98;;;4.22;;
21128;SDS011;10722;51.910;8.352;2023-06-05T00:27:22;11.38;;;3.90;;
21128;SDS011;10722;51.910;8.352;2023-06-05T00:30:08;12.13;;;3.92;;
21128;SDS011;10722;51.910;8.352;2023-06-05T00:32:53;10.55;;;3.85;;
21128;SDS011;10722;51.910;8.352;2023-06-05T00:35:39;11.85;;;3.80;;
21128;SDS011;10722;51.910;8.352;2023-06-05T00:38:24;13.43;;;4.28;;
21128;SDS011;10722;51.910;8.352;2023-06-05T00:41:09;14.88;;;4.40;;
21128;SDS011;10722;51.910;8.352;2023-06-05T00:43:55;13.02;;;4.32;;
21128;SDS011;10722;51.910;8.352;2023-06-05T00:46:40;12.48;;;3.80;;
21128;SDS011;10722;51.910;8.352;2023-06-05T00:49:26;15.82;;;3.78;;
21128;SDS011;10722;51.910;8.352;2023-06-05T00:52:12;11.45;;;3.40;;
21128;SDS011;10722;51.910;8.352;2023-06-05T00:54:57;11.98;;;4.00;;
21128;SDS011;10722;51.910;8.352;2023-06-05T00:57:44;12.48;;;3.95;;
21128;SDS011;10722;51.910;8.352;2023-06-05T01:00:29;12.88;;;4.18;;
21128;SDS011;10722;51.910;8.352;2023-06-05T01:03:15;14.45;;;4.10;;
21128;SDS011;10722;51.910;8.352;2023-06-05T01:06:00;13.48;;;4.18;;
21128;SDS011;10722;51.910;8.352;2023-06-05T01:08:46;12.45;;;3.90;;
21128;SDS011;10722;51.910;8.352;2023-06-05T01:11:37;14.60;;;4.20;;
21128;SDS011;10722;51.910;8.352;2023-06-05T01:14:30;12.13;;;3.78;;
21128;SDS011;10722;51.910;8.352;2023-06-05T01:17:16;13.25;;;4.28;;
21128;SDS011;10722;51.910;8.352;2023-06-05T01:20:02;14.73;;;4.28;;
21128;SDS011;10722;51.910;8.352;2023-06-05T01:22:51;15.32;;;3.90;;
21128;SDS011;10722;51.910;8.352;2023-06-05T01:25:36;13.52;;;4.30;;
21128;SDS011;10722;51.910;8.352;2023-06-05T01:28:23;12.60;;;4.10;;
21128;SDS011;10722;51.910;8.352;2023-06-05T01:31:13;13.05;;;4.32;;
21128;SDS011;10722;51.910;8.352;2023-06-05T01:34:04;12.55;;;4.20;;
21128;SDS011;10722;51.910;8.352;2023-06-05T01:36:52;11.88;;;3.92;;
21128;SDS011;10722;51.910;8.352;2023-06-05T01:39:40;13.00;;;4.00;;
21128;SDS011;10722;51.910;8.352;2023-06-05T01:42:27;13.82;;;4.18;;
21128;SDS011;10722;51.910;8.352;2023-06-05T01:45:14;10.02;;;3.78;;
21128;SDS011;10722;51.910;8.352;2023-06-05T01:48:00;12.55;;;3.88;;
21128;SDS011;10722;51.910;8.352;2023-06-05T01:50:45;13.35;;;4.10;;
21128;SDS011;10722;51.910;8.352;2023-06-05T01:53:30;11.95;;;4.13;;
21128;SDS011;10722;51.910;8.352;2023-06-05T01:56:16;14.63;;;4.55;;
21128;SDS011;10722;51.910;8.352;2023-06-05T01:59:01;12.55;;;3.80;;
21128;SDS011;10722;51.910;8.352;2023-06-05T02:01:47;11.55;;;4.05;;
21128;SDS011;10722;51.910;8.352;2023-06-05T02:04:32;12.32;;;4.03;;
21128;SDS011;10722;51.910;8.352;2023-06-05T02:07:17;13.25;;;4.00;;
21128;SDS011;10722;51.910;8.352;2023-06-05T02:10:04;13.30;;;4.53;;
21128;SDS011;10722;51.910;8.352;2023-06-05T02:12:50;13.32;;;4.40;;
21128;SDS011;10722;51.910;8.352;2023-06-05T02:15:35;13.15;;;4.45;;
21128;SDS011;10722;51.910;8.352;2023-06-05T02:18:20;10.18;;;4.13;;
21128;SDS011;10722;51.910;8.352;2023-06-05T02:21:06;12.20;;;4.35;;
21128;SDS011;10722;51.910;8.352;2023-06-05T02:23:51;12.40;;;4.03;;
21128;SDS011;10722;51.910;8.352;2023-06-05T02:26:36;14.23;;;4.70;;
21128;SDS011;10722;51.910;8.352;2023-06-05T02:29:22;13.75;;;5.03;;
21128;SDS011;10722;51.910;8.352;2023-06-05T02:32:07;13.88;;;4.95;;
21128;SDS011;10722;51.910;8.352;2023-06-05T02:34:53;12.23;;;4.43;;
21128;SDS011;10722;51.910;8.352;2023-06-05T02:37:38;11.70;;;4.57;;
21128;SDS011;10722;51.910;8.352;2023-06-05T02:40:24;12.70;;;4.50;;
21128;SDS011;10722;51.910;8.352;2023-06-05T02:43:09;18.15;;;5.20;;
21128;SDS011;10722;51.910;8.352;2023-06-05T02:45:55;14.82;;;4.78;;
21128;SDS011;10722;51.910;8.352;2023-06-05T02:48:40;12.90;;;4.65;;
21128;SDS011;10722;51.910;8.352;2023-06-05T02:51:26;11.65;;;4.97;;
21128;SDS011;10722;51.910;8.352;2023-06-05T02:54:11;12.02;;;4.82;;
21128;SDS011;10722;51.910;8.352;2023-06-05T02:56:56;12.75;;;4.80;;
21128;SDS011;10722;51.910;8.352;2023-06-05T02:59:41;15.25;;;5.63;;
21128;SDS011;10722;51.910;8.352;2023-06-05T03:02:27;13.50;;;5.18;;
21128;SDS011;10722;51.910;8.352;2023-06-05T03:05:12;12.77;;;4.97;;
21128;SDS011;10722;51.910;8.352;2023-06-05T03:07:58;15.15;;;5.07;;
21128;SDS011;10722;51.910;8.352;2023-06-05T03:10:43;15.48;;;5.03;;
21128;SDS011;10722;51.910;8.352;2023-06-05T03:13:28;14.98;;;5.07;;
21128;SDS011;10722;51.910;8.352;2023-06-05T03:16:13;13.15;;;5.05;;
21128;SDS011;10722;51.910;8.352;2023-06-05T03:18:59;12.30;;;4.95;;
21128;SDS011;10722;51.910;8.352;2023-06-05T03:21:44;14.45;;;5.35;;
21128;SDS011;10722;51.910;8.352;2023-06-05T03:24:29;12.52;;;5.10;;
21128;SDS011;10722;51.910;8.352;2023-06-05T03:27:15;16.40;;;5.13;;
21128;SDS011;10722;51.910;8.352;2023-06-05T03:30:00;13.10;;;5.47;;
21128;SDS011;10722;51.910;8.352;2023-06-05T03:32:45;13.10;;;5.45;;
21128;SDS011;10722;51.910;8.352;2023-06-05T03:35:33;15.65;;;5.63;;
21128;SDS011;10722;51.910;8.352;2023-06-05T03:38:18;15.77;;;5.75;;
21128;SDS011;10722;51.910;8.352;2023-06-05T03:41:03;14.88;;;5.80;;
21128;SDS011;10722;51.910;8.352;2023-06-05T03:43:49;16.33;;;6.22;;
21128;SDS011;10722;51.910;8.352;2023-06-05T03:46:34;18.55;;;6.72;;
21128;SDS011;10722;51.910;8.352;2023-06-05T03:49:20;17.00;;;6.50;;
21128;SDS011;10722;51.910;8.352;2023-06-05T03:52:05;14.15;;;6.60;;
21128;SDS011;10722;51.910;8.352;2023-06-05T03:54:51;15.75;;;6.45;;
21128;SDS011;10722;51.910;8.352;2023-06-05T03:57:36;15.10;;;6.18;;
21128;SDS011;10722;51.910;8.352;2023-06-05T04:00:22;14.75;;;6.80;;
21128;SDS011;10722;51.910;8.352;2023-06-05T04:03:07;14.35;;;6.65;;
21128;SDS011;10722;51.910;8.352;2023-06-05T04:05:53;15.93;;;6.50;;
21128;SDS011;10722;51.910;8.352;2023-06-05T04:08:38;16.67;;;6.70;;
21128;SDS011;10722;51.910;8.352;2023-06-05T04:11:24;14.85;;;6.25;;
21128;SDS011;10722;51.910;8.352;2023-06-05T04:14:10;14.82;;;6.25;;
21128;SDS011;10722;51.910;8.352;2023-06-05T04:16:56;16.77;;;7.05;;
21128;SDS011;10722;51.910;8.352;2023-06-05T04:19:41;15.20;;;6.55;;
21128;SDS011;10722;51.910;8.352;2023-06-05T04:22:27;15.18;;;6.75;;
21128;SDS011;10722;51.910;8.352;2023-06-05T04:25:12;12.98;;;5.82;;
21128;SDS011;10722;51.910;8.352;2023-06-05T04:27:58;17.00;;;6.47;;
21128;SDS011;10722;51.910;8.352;2023-06-05T04:30:44;14.57;;;6.78;;
21128;SDS011;10722;51.910;8.352;2023-06-05T04:33:29;15.13;;;6.53;;
21128;SDS011;10722;51.910;8.352;2023-06-05T04:36:15;16.55;;;7.00;;
21128;SDS011;10722;51.910;8.352;2023-06-05T04:39:00;18.40;;;6.68;;
21128;SDS011;10722;51.910;8.352;2023-06-05T04:41:46;15.52;;;6.45;;
21128;SDS011;10722;51.910;8.352;2023-06-05T04:44:41;15.88;;;6.90;;
21128;SDS011;10722;51.910;8.352;2023-06-05T04:47:27;15.40;;;6.82;;
21128;SDS011;10722;51.910;8.352;2023-06-05T04:50:25;16.75;;;7.63;;
21128;SDS011;10722;51.910;8.352;2023-06-05T04:53:12;17.90;;;8.32;;
21128;SDS011;10722;51.910;8.352;2023-06-05T04:55:57;17.23;;;7.88;;
21128;SDS011;10722;51.910;8.352;2023-06-05T04:58:43;16.55;;;8.38;;
21128;SDS011;10722;51.910;8.352;2023-06-05T05:01:28;18.58;;;7.95;;
21128;SDS011;10722;51.910;8.352;2023-06-05T05:04:14;15.68;;;7.30;;
21128;SDS011;10722;51.910;8.352;2023-06-05T05:06:59;16.67;;;7.63;;
21128;SDS011;10722;51.910;8.352;2023-06-05T05:09:45;17.85;;;7.78;;
21128;SDS011;10722;51.910;8.352;2023-06-05T05:12:30;20.67;;;8.35;;
21128;SDS011;10722;51.910;8.352;2023-06-05T05:15:15;19.17;;;7.68;;
21128;SDS011;10722;51.910;8.352;2023-06-05T05:18:01;18.90;;;8.25;;
21128;SDS011;10722;51.910;8.352;2023-06-05T05:20:48;16.58;;;7.65;;
21128;SDS011;10722;51.910;8.352;2023-06-05T05:23:33;16.92;;;8.18;;
21128;SDS011;10722;51.910;8.352;2023-06-05T05:26:19;19.95;;;8.40;;
21128;SDS011;10722;51.910;8.352;2023-06-05T05:29:04;17.42;;;7.75;;
21128;SDS011;10722;51.910;8.352;2023-06-05T05:31:50;18.55;;;8.15;;
21128;SDS011;10722;51.910;8.352;2023-06-05T05:34:36;19.55;;;8.45;;
21128;SDS011;10722;51.910;8.352;2023-06-05T05:37:21;16.75;;;8.18;;
21128;SDS011;10722;51.910;8.352;2023-06-05T05:40:07;19.90;;;8.63;;
21128;SDS011;10722;51.910;8.352;2023-06-05T05:42:52;17.80;;;8.05;;
21128;SDS011;10722;51.910;8.352;2023-06-05T05:45:37;18.40;;;8.27;;
21128;SDS011;10722;51.910;8.352;2023-06-05T05:48:22;17.08;;;7.57;;
21128;SDS011;10722;51.910;8.352;2023-06-05T05:51:08;16.75;;;7.95;;
21128;SDS011;10722;51.910;8.352;2023-06-05T05:53:53;17.27;;;7.93;;
21128;SDS011;10722;51.910;8.352;2023-06-05T05:56:39;16.42;;;7.63;;
21128;SDS011;10722;51.910;8.352;2023-06-05T05:59:24;17.23;;;7.97;;
21128;SDS011;10722;51.910;8.352;2023-06-05T06:02:09;17.48;;;7.68;;
21128;SDS011;10722;51.910;8.352;2023-06-05T06:04:55;17.77;;;7.60;;
21128;SDS011;10722;51.910;8.352;2023-06-05T06:07:41;18.88;;;9.48;;
21128;SDS011;10722;51.910;8.352;2023-06-05T06:10:26;20.58;;;9.93;;
21128;SDS011;10722;51.910;8.352;2023-06-05T06:13:12;22.38;;;10.48;;
21128;SDS011;10722;51.910;8.352;2023-06-05T06:15:57;18.92;;;9.05;;
21128;SDS011;10722;51.910;8.352;2023-06-05T06:18:43;17.38;;;7.47;;
21128;SDS011;10722;51.910;8.352;2023-06-05T06:21:29;19.88;;;8.80;;
21128;SDS011;10722;51.910;8.352;2023-06-05T06:24:14;19.77;;;9.00;;
21128;SDS011;10722;51.910;8.352;2023-06-05T06:27:00;18.92;;;7.97;;
21128;SDS011;10722;51.910;8.352;2023-06-05T06:29:47;19.15;;;8.07;;
21128;SDS011;10722;51.910;8.352;2023-06-05T06:32:36;18.30;;;8.18;;
21128;SDS011;10722;51.910;8.352;2023-06-05T06:35:22;21.50;;;7.68;;
21128;SDS011;10722;51.910;8.352;2023-06-05T06:38:07;17.23;;;7.55;;
21128;SDS011;10722;51.910;8.352;2023-06-05T06:40:52;19.52;;;8.30;;
21128;SDS011;10722;51.910;8.352;2023-06-05T06:43:38;19.33;;;7.75;;
21128;SDS011;10722;51.910;8.352;2023-06-05T06:46:23;18.00;;;8.10;;
21128;SDS011;10722;51.910;8.352;2023-06-05T06:49:08;17.38;;;7.32;;
21128;SDS011;10722;51.910;8.352;2023-06-05T06:51:54;19.10;;;7.45;;
21128;SDS011;10722;51.910;8.352;2023-06-05T06:54:39;15.48;;;7.32;;
21128;SDS011;10722;51.910;8.352;2023-06-05T06:57:25;17.48;;;6.53;;
21128;SDS011;10722;51.910;8.352;2023-06-05T07:00:10;16.40;;;7.35;;
21128;SDS011;10722;51.910;8.352;2023-06-05T07:02:55;17.08;;;7.82;;
21128;SDS011;10722;51.910;8.352;2023-06-05T07:05:41;17.35;;;7.95;;
21128;SDS011;10722;51.910;8.352;2023-06-05T07:08:26;17.75;;;6.70;;
21128;SDS011;10722;51.910;8.352;2023-06-05T07:11:11;16.83;;;6.30;;
21128;SDS011;10722;51.910;8.352;2023-06-05T07:13:57;15.27;;;6.80;;
21128;SDS011;10722;51.910;8.352;2023-06-05T07:16:42;14.73;;;6.50;;
21128;SDS011;10722;51.910;8.352;2023-06-05T07:19:28;14.82;;;6.38;;
21128;SDS011;10722;51.910;8.352;2023-06-05T07:22:14;18.17;;;5.85;;
21128;SDS011;10722;51.910;8.352;2023-06-05T07:24:59;16.77;;;6.40;;
21128;SDS011;10722;51.910;8.352;2023-06-05T07:27:45;15.73;;;5.95;;
21128;SDS011;10722;51.910;8.352;2023-06-05T07:30:30;16.55;;;6.05;;
21128;SDS011;10722;51.910;8.352;2023-06-05T07:33:15;18.45;;;6.78;;
21128;SDS011;10722;51.910;8.352;2023-06-05T07:36:14;14.40;;;5.38;;
21128;SDS011;10722;51.910;8.352;2023-06-05T07:39:00;15.20;;;5.40;;
21128;SDS011;10722;51.910;8.352;2023-06-05T07:41:45;14.60;;;5.40;;
21128;SDS011;10722;51.910;8.352;2023-06-05T07:44:30;13.70;;;4.78;;
21128;SDS011;10722;51.910;8.352;2023-06-05T07:47:16;15.63;;;5.53;;
21128;SDS011;10722;51.910;8.352;2023-06-05T07:50:02;15.57;;;5.55;;
21128;SDS011;10722;51.910;8.352;2023-06-05T07:52:47;17.35;;;6.18;;
21128;SDS011;10722;51.910;8.352;2023-06-05T07:55:33;15.57;;;5.90;;
21128;SDS011;10722;51.910;8.352;2023-06-05T07:58:18;17.42;;;5.75;;
21128;SDS011;10722;51.910;8.352;2023-06-05T08:01:04;16.50;;;5.18;;
21128;SDS011;10722;51.910;8.352;2023-06-05T08:03:49;12.43;;;4.30;;
21128;SDS011;10722;51.910;8.352;2023-06-05T08:06:34;13.80;;;4.57;;
21128;SDS011;10722;51.910;8.352;2023-06-05T08:09:20;13.23;;;4.15;;
21128;SDS011;10722;51.910;8.352;2023-06-05T08:12:05;14.75;;;4.82;;
21128;SDS011;10722;51.910;8.352;2023-06-05T08:14:51;12.68;;;4.78;;
21128;SDS011;10722;51.910;8.352;2023-06-05T08:17:36;14.68;;;5.15;;
21128;SDS011;10722;51.910;8.352;2023-06-05T08:20:21;14.55;;;5.93;;
21128;SDS011;10722;51.910;8.352;2023-06-05T08:23:07;25.92;;;15.50;;
21128;SDS011;10722;51.910;8.352;2023-06-05T08:25:53;13.63;;;4.32;;
21128;SDS011;10722;51.910;8.352;2023-06-05T08:28:39;14.30;;;4.10;;
21128;SDS011;10722;51.910;8.352;2023-06-05T08:31:25;11.50;;;3.92;;
21128;SDS011;10722;51.910;8.352;2023-06-05T08:34:11;11.85;;;3.70;;
21128;SDS011;10722;51.910;8.352;2023-06-05T08:36:57;14.65;;;4.03;;
21128;SDS011;10722;51.910;8.352;2023-06-05T08:39:44;10.02;;;3.65;;
21128;SDS011;10722;51.910;8.352;2023-06-05T08:42:29;14.43;;;4.15;;
21128;SDS011;10722;51.910;8.352;2023-06-05T08:45:14;12.70;;;3.90;;
21128;SDS011;10722;51.910;8.352;2023-06-05T08:48:00;14.80;;;4.28;;
21128;SDS011;10722;51.910;8.352;2023-06-05T08:50:47;13.25;;;3.70;;
21128;SDS011;10722;51.910;8.352;2023-06-05T08:53:33;13.10;;;4.00;;
21128;SDS011;10722;51.910;8.352;2023-06-05T08:56:19;12.18;;;3.72;;
21128;SDS011;10722;51.910;8.352;2023-06-05T08:59:06;12.85;;;3.67;;
21128;SDS011;10722;51.910;8.352;2023-06-05T09:01:51;15.38;;;3.78;;
21128;SDS011;10722;51.910;8.352;2023-06-05T09:04:38;12.40;;;3.25;;
21128;SDS011;10722;51.910;8.352;2023-06-05T09:07:24;11.45;;;3.53;;
21128;SDS011;10722;51.910;8.352;2023-06-05T09:13:08;27.65;;;16.77;;
21128;SDS011;10722;51.910;8.352;2023-06-05T09:15:53;12.90;;;4.63;;
21128;SDS011;10722;51.910;8.352;2023-06-05T09:18:51;12.73;;;3.47;;
21128;SDS011;10722;51.910;8.352;2023-06-05T09:21:51;10.68;;;3.30;;
21128;SDS011;10722;51.910;8.352;2023-06-05T09:24:37;12.38;;;3.17;;
21128;SDS011;10722;51.910;8.352;2023-06-05T09:27:24;11.85;;;3.20;;
21128;SDS011;10722;51.910;8.352;2023-06-05T09:30:09;11.15;;;3.05;;
21128;SDS011;10722;51.910;8.352;2023-06-05T09:32:55;13.30;;;4.00;;
21128;SDS011;10722;51.910;8.352;2023-06-05T09:35:40;13.45;;;4.00;;
21128;SDS011;10722;51.910;8.352;2023-06-05T09:38:26;10.05;;;3.38;;
21128;SDS011;10722;51.910;8.352;2023-06-05T09:41:13;13.43;;;3.58;;
21128;SDS011;10722;51.910;8.352;2023-06-05T09:43:59;10.65;;;3.10;;
21128;SDS011;10722;51.910;8.352;2023-06-05T09:47:07;11.02;;;3.30;;
21128;SDS011;10722;51.910;8.352;2023-06-05T09:49:54;9.32;;;3.30;;
21128;SDS011;10722;51.910;8.352;2023-06-05T09:52:39;13.20;;;3.78;;
21128;SDS011;10722;51.910;8.352;2023-06-05T09:55:25;12.43;;;4.45;;
21128;SDS011;10722;51.910;8.352;2023-06-05T09:58:11;12.48;;;3.65;;
21128;SDS011;10722;51.910;8.352;2023-06-05T10:00:57;11.43;;;3.75;;
21128;SDS011;10722;51.910;8.352;2023-06-05T10:03:44;10.93;;;3.50;;
21128;SDS011;10722;51.910;8.352;2023-06-05T10:06:36;12.13;;;4.03;;
21128;SDS011;10722;51.910;8.352;2023-06-05T10:09:23;12.35;;;3.65;;
21128;SDS011;10722;51.910;8.352;2023-06-05T10:12:10;12.20;;;3.80;;
21128;SDS011;10722;51.910;8.352;2023-06-05T10:14:56;15.00;;;4.05;;
21128;SDS011;10722;51.910;8.352;2023-06-05T10:17:42;12.63;;;4.20;;
21128;SDS011;10722;51.910;8.352;2023-06-05T10:20:28;12.45;;;4.15;;
21128;SDS011;10722;51.910;8.352;2023-06-05T10:23:15;15.10;;;4.20;;
21128;SDS011;10722;51.910;8.352;2023-06-05T10:26:02;14.93;;;4.50;;
21128;SDS011;10722;51.910;8.352;2023-06-05T10:32:09;12.82;;;4.43;;
21128;SDS011;10722;51.910;8.352;2023-06-05T10:35:57;11.98;;;4.63;;
21128;SDS011;10722;51.910;8.352;2023-06-05T10:38:23;14.10;;;5.38;;
21128;SDS011;10722;51.910;8.352;2023-06-05T10:41:10;15.35;;;5.35;;
21128;SDS011;10722;51.910;8.352;2023-06-05T10:43:57;13.10;;;4.70;;
21128;SDS011;10722;51.910;8.352;2023-06-05T10:46:42;11.40;;;4.15;;
21128;SDS011;10722;51.910;8.352;2023-06-05T10:49:30;8.88;;;3.60;;
21128;SDS011;10722;51.910;8.352;2023-06-05T10:55:21;11.35;;;3.47;;
21128;SDS011;10722;51.910;8.352;2023-06-05T10:58:08;12.70;;;3.30;;
21128;SDS011;10722;51.910;8.352;2023-06-05T11:03:59;8.43;;;3.28;;
21128;SDS011;10722;51.910;8.352;2023-06-05T11:07:13;8.50;;;2.85;;
21128;SDS011;10722;51.910;8.352;2023-06-05T11:10:09;10.65;;;3.33;;
21128;SDS011;10722;51.910;8.352;2023-06-05T11:12:59;12.90;;;3.28;;
21128;SDS011;10722;51.910;8.352;2023-06-05T11:15:45;9.82;;;2.50;;
21128;SDS011;10722;51.910;8.352;2023-06-05T11:18:32;8.50;;;2.63;;
21128;SDS011;10722;51.910;8.352;2023-06-05T11:21:18;6.65;;;2.55;;
21128;SDS011;10722;51.910;8.352;2023-06-05T11:24:15;11.52;;;3.20;;
21128;SDS011;10722;51.910;8.352;2023-06-05T11:27:02;11.77;;;2.95;;
21128;SDS011;10722;51.910;8.352;2023-06-05T11:29:48;9.75;;;2.90;;
21128;SDS011;10722;51.910;8.352;2023-06-05T11:32:34;9.60;;;2.60;;
21128;SDS011;10722;51.910;8.352;2023-06-05T11:35:23;8.45;;;2.90;;
21128;SDS011;10722;51.910;8.352;2023-06-05T11:38:20;10.50;;;2.97;;
21128;SDS011;10722;51.910;8.352;2023-06-05T11:41:08;6.88;;;2.70;;
21128;SDS011;10722;51.910;8.352;2023-06-05T11:43:53;11.23;;;3.03;;
21128;SDS011;10722;51.910;8.352;2023-06-05T11:46:39;9.73;;;3.00;;
21128;SDS011;10722;51.910;8.352;2023-06-05T11:49:27;8.77;;;2.97;;
21128;SDS011;10722;51.910;8.352;2023-06-05T11:52:22;9.85;;;3.30;;
21128;SDS011;10722;51.910;8.352;2023-06-05T11:55:14;13.50;;;4.72;;
21128;SDS011;10722;51.910;8.352;2023-06-05T11:58:01;7.35;;;3.05;;
21128;SDS011;10722;51.910;8.352;2023-06-05T12:00:46;9.25;;;4.22;;
21128;SDS011;10722;51.910;8.352;2023-06-05T12:03:32;11.48;;;3.00;;
21128;SDS011;10722;51.910;8.352;2023-06-05T12:06:17;9.88;;;2.88;;
21128;SDS011;10722;51.910;8.352;2023-06-05T12:09:06;14.57;;;3.22;;
21128;SDS011;10722;51.910;8.352;2023-06-05T12:11:52;11.75;;;2.75;;
21128;SDS011;10722;51.910;8.352;2023-06-05T12:14:49;8.05;;;2.60;;
21128;SDS011;10722;51.910;8.352;2023-06-05T12:17:34;10.85;;;3.28;;
21128;SDS011;10722;51.910;8.352;2023-06-05T12:20:20;8.98;;;2.70;;
21128;SDS011;10722;51.910;8.352;2023-06-05T12:23:05;9.80;;;2.80;;
21128;SDS011;10722;51.910;8.352;2023-06-05T12:25:57;7.07;;;2.67;;
21128;SDS011;10722;51.910;8.352;2023-06-05T12:28:46;9.77;;;2.83;;
21128;SDS011;10722;51.910;8.352;2023-06-05T12:31:35;8.75;;;2.80;;
21128;SDS011;10722;51.910;8.352;2023-06-05T12:37:42;10.32;;;3.10;;
21128;SDS011;10722;51.910;8.352;2023-06-05T12:40:27;11.50;;;3.10;;
21128;SDS011;10722;51.910;8.352;2023-06-05T12:43:22;9.88;;;3.20;;
21128;SDS011;10722;51.910;8.352;2023-06-05T12:46:07;9.68;;;3.00;;
21128;SDS011;10722;51.910;8.352;2023-06-05T12:48:52;9.45;;;3.10;;
21128;SDS011;10722;51.910;8.352;2023-06-05T12:51:38;8.98;;;2.90;;
21128;SDS011;10722;51.910;8.352;2023-06-05T12:54:23;10.90;;;3.10;;
21128;SDS011;10722;51.910;8.352;2023-06-05T12:57:09;8.45;;;2.90;;
21128;SDS011;10722;51.910;8.352;2023-06-05T12:59:57;8.65;;;3.00;;
21128;SDS011;10722;51.910;8.352;2023-06-05T13:02:43;12.68;;;3.10;;
21128;SDS011;10722;51.910;8.352;2023-06-05T13:05:29;9.38;;;3.00;;
21128;SDS011;10722;51.910;8.352;2023-06-05T13:08:15;8.50;;;2.80;;
21128;SDS011;10722;51.910;8.352;2023-06-05T13:11:00;9.50;;;3.60;;
21128;SDS011;10722;51.910;8.352;2023-06-05T13:13:45;8.77;;;3.03;;
21128;SDS011;10722;51.910;8.352;2023-06-05T13:16:31;10.57;;;3.13;;
21128;SDS011;10722;51.910;8.352;2023-06-05T13:19:16;8.73;;;2.65;;
21128;SDS011;10722;51.910;8.352;2023-06-05T13:22:01;8.40;;;2.53;;
21128;SDS011;10722;51.910;8.352;2023-06-05T13:24:46;10.82;;;2.80;;
21128;SDS011;10722;51.910;8.352;2023-06-05T13:27:32;9.18;;;2.85;;
21128;SDS011;10722;51.910;8.352;2023-06-05T13:30:17;8.85;;;2.58;;
21128;SDS011;10722;51.910;8.352;2023-06-05T13:33:03;9.00;;;2.90;;
21128;SDS011;10722;51.910;8.352;2023-06-05T13:35:48;9.40;;;3.10;;
21128;SDS011;10722;51.910;8.352;2023-06-05T13:38:34;36.45;;;27.40;;
21128;SDS011;10722;51.910;8.352;2023-06-05T13:41:19;9.52;;;2.75;;
21128;SDS011;10722;51.910;8.352;2023-06-05T13:44:04;15.18;;;2.90;;
21128;SDS011;10722;51.910;8.352;2023-06-05T13:46:49;9.63;;;2.75;;
21128;SDS011;10722;51.910;8.352;2023-06-05T13:49:35;9.35;;;2.80;;
21128;SDS011;10722;51.910;8.352;2023-06-05T13:52:20;8.73;;;2.85;;
21128;SDS011;10722;51.910;8.352;2023-06-05T13:55:06;7.90;;;2.75;;
21128;SDS011;10722;51.910;8.352;2023-06-05T13:57:51;7.03;;;2.75;;
21128;SDS011;10722;51.910;8.352;2023-06-05T14:00:37;9.43;;;2.72;;
21128;SDS011;10722;51.910;8.352;2023-06-05T14:03:22;8.00;;;2.42;;
21128;SDS011;10722;51.910;8.352;2023-06-05T14:06:08;9.32;;;3.00;;
21128;SDS011;10722;51.910;8.352;2023-06-05T14:08:53;12.15;;;2.72;;
21128;SDS011;10722;51.910;8.352;2023-06-05T14:11:38;19.75;;;3.20;;
21128;SDS011;10722;51.910;8.352;2023-06-05T14:14:24;9.68;;;2.70;;
21128;SDS011;10722;51.910;8.352;2023-06-05T14:17:09;7.40;;;2.55;;
21128;SDS011;10722;51.910;8.352;2023-06-05T14:19:55;8.73;;;2.90;;
21128;SDS011;10722;51.910;8.352;2023-06-05T14:22:40;7.93;;;2.67;;
21128;SDS011;10722;51.910;8.352;2023-06-05T14:25:26;9.38;;;3.00;;
21128;SDS011;10722;51.910;8.352;2023-06-05T14:28:11;9.60;;;2.88;;
21128;SDS011;10722;51.910;8.352;2023-06-05T14:30:56;10.55;;;2.70;;
21128;SDS011;10722;51.910;8.352;2023-06-05T14:33:41;9.80;;;2.95;;
21128;SDS011;10722;51.910;8.352;2023-06-05T14:36:27;10.60;;;2.75;;
21128;SDS011;10722;51.910;8.352;2023-06-05T14:39:12;7.55;;;2.70;;
21128;SDS011;10722;51.910;8.352;2023-06-05T14:41:57;8.65;;;2.72;;
21128;SDS011;10722;51.910;8.352;2023-06-05T14:44:42;7.00;;;2.60;;
21128;SDS011;10722;51.910;8.352;2023-06-05T14:47:27;9.10;;;2.83;;
21128;SDS011;10722;51.910;8.352;2023-06-05T14:50:12;10.13;;;2.88;;
21128;SDS011;10722;51.910;8.352;2023-06-05T14:52:57;10.73;;;3.08;;
21128;SDS011;10722;51.910;8.352;2023-06-05T14:55:43;11.43;;;2.75;;
21128;SDS011;10722;51.910;8.352;2023-06-05T14:58:28;7.95;;;2.80;;
21128;SDS011;10722;51.910;8.352;2023-06-05T15:01:13;9.48;;;2.85;;
21128;SDS011;10722;51.910;8.352;2023-06-05T15:03:59;8.88;;;2.72;;
21128;SDS011;10722;51.910;8.352;2023-06-05T15:06:44;9.27;;;3.15;;
21128;SDS011;10722;51.910;8.352;2023-06-05T15:09:29;8.45;;;2.80;;
21128;SDS011;10722;51.910;8.352;2023-06-05T15:12:15;8.38;;;2.67;;
21128;SDS011;10722;51.910;8.352;2023-06-05T15:15:00;8.95;;;2.78;;
21128;SDS011;10722;51.910;8.352;2023-06-05T15:18:04;8.13;;;2.80;;
21128;SDS011;10722;51.910;8.352;2023-06-05T15:20:50;8.13;;;2.63;;
21128;SDS011;10722;51.910;8.352;2023-06-05T15:23:35;7.22;;;2.70;;
21128;SDS011;10722;51.910;8.352;2023-06-05T15:26:20;8.48;;;2.92;;
21128;SDS011;10722;51.910;8.352;2023-06-05T15:29:06;7.13;;;2.70;;
21128;SDS011;10722;51.910;8.352;2023-06-05T15:31:51;13.70;;;3.03;;
21128;SDS011;10722;51.910;8.352;2023-06-05T15:34:36;8.60;;;2.85;;
21128;SDS011;10722;51.910;8.352;2023-06-05T15:37:23;7.28;;;2.60;;
21128;SDS011;10722;51.910;8.352;2023-06-05T15:40:09;12.07;;;2.95;;
21128;SDS011;10722;51.910;8.352;2023-06-05T15:43:07;8.07;;;2.70;;
21128;SDS011;10722;51.910;8.352;2023-06-05T15:45:54;9.32;;;2.90;;
21128;SDS011;10722;51.910;8.352;2023-06-05T15:48:39;7.68;;;2.83;;
21128;SDS011;10722;51.910;8.352;2023-06-05T15:51:25;10.02;;;2.90;;
21128;SDS011;10722;51.910;8.352;2023-06-05T15:54:10;7.35;;;2.47;;
21128;SDS011;10722;51.910;8.352;2023-06-05T15:57:15;10.35;;;2.78;;
21128;SDS011;10722;51.910;8.352;2023-06-05T16:00:01;8.00;;;2.55;;
21128;SDS011;10722;51.910;8.352;2023-06-05T16:02:46;8.70;;;2.80;;
21128;SDS011;10722;51.910;8.352;2023-06-05T16:05:31;11.88;;;2.92;;
21128;SDS011;10722;51.910;8.352;2023-06-05T16:08:16;9.45;;;2.83;;
21128;SDS011;10722;51.910;8.352;2023-06-05T16:11:02;8.40;;;2.80;;
21128;SDS011;10722;51.910;8.352;2023-06-05T16:13:48;9.57;;;3.03;;
21128;SDS011;10722;51.910;8.352;2023-06-05T16:16:33;8.30;;;2.67;;
21128;SDS011;10722;51.910;8.352;2023-06-05T16:19:19;8.68;;;2.92;;
21128;SDS011;10722;51.910;8.352;2023-06-05T16:22:06;8.02;;;2.55;;
21128;SDS011;10722;51.910;8.352;2023-06-05T16:24:51;8.10;;;2.60;;
21128;SDS011;10722;51.910;8.352;2023-06-05T16:27:36;8.35;;;3.08;;
21128;SDS011;10722;51.910;8.352;2023-06-05T16:30:22;10.60;;;2.88;;
21128;SDS011;10722;51.910;8.352;2023-06-05T16:33:07;11.15;;;2.88;;
21128;SDS011;10722;51.910;8.352;2023-06-05T16:35:53;13.63;;;3.28;;
21128;SDS011;10722;51.910;8.352;2023-06-05T16:38:38;10.10;;;3.05;;
21128;SDS011;10722;51.910;8.352;2023-06-05T16:41:25;5.90;;;2.60;;
21128;SDS011;10722;51.910;8.352;2023-06-05T16:44:11;6.75;;;2.50;;
21128;SDS011;10722;51.910;8.352;2023-06-05T16:46:56;7.78;;;2.70;;
21128;SDS011;10722;51.910;8.352;2023-06-05T16:49:42;10.10;;;2.85;;